Lillooet, Canada
Current Conditions -  °F | °C
As of 2:00 AM on Sunday 25 Jan 2015 (Local Time) from CWLY Reporting Station
Clear Clear  
Wind Chill: 39°   Ceiling: Unl
Heat Index: 39°   Visibility: 9mi
Dew Point: 36°   Wind: 2mph
Humidity: 87%   Direction: NA
Pressure: 30.02"   Gusts: NA
Location:  50.68°N, 121.93°W
Report Text: CWLY 251000Z AUTO VRB02KT 9SM CLR 04/02 A3002 RMK SLP172
Loading
Personal Weather Stations






























Interactive Weather Map New forecast layout! Learn more

10-Day Weather Forecast

Advertisements
Track Severe Weather on mobile